Time;durP1;ratioP1;P1;durP2;ratioP2;P2;SDS_P1;SDS_P2;PMS_P1;PMS_P2;Temp;Humidity;BMP_temperature;BMP_pressure;BME280_temperature;BME280_humidity;BME280_pressure;Samples;Min_cycle;Max_cycle;Signal;HPM_P1;HPM_P2
2022/01/25 00:09:20;;;;;;;44.90;23.50;;;;;;;2.59;76.30;101549.52;130170;1271;108876;-84
2022/01/25 00:26:06;;;;;;;39.70;22.00;;;;;;;2.69;76.31;101539.02;130469;1267;108693;-86
2022/01/25 00:29:15;;;;;;;38.90;21.70;;;;;;;2.67;76.62;101542.27;130519;1267;107669;-85
2022/01/25 00:32:20;;;;;;;41.60;22.60;;;;;;;2.61;76.82;101543.25;130494;1267;108794;-83
2022/01/25 00:35:26;;;;;;;42.70;23.30;;;;;;;2.56;76.86;101538.39;130478;1267;108694;-82
2022/01/25 00:38:31;;;;;;;34.30;18.80;;;;;;;2.58;76.85;101538.66;130373;1270;108753;-82
2022/01/25 00:41:36;;;;;;;36.00;21.20;;;;;;;2.63;76.98;101532.64;130493;1267;108727;-83
2022/01/25 00:44:46;;;;;;;40.60;23.40;;;;;;;2.68;77.00;101520.25;130630;1267;108880;-85
2022/01/25 00:47:52;;;;;;;38.10;21.10;;;;;;;2.70;76.93;101514.02;130595;1267;108867;-80
2022/01/25 00:51:14;;;;;;;38.50;21.10;;;;;;;2.72;76.86;101511.27;130507;1266;108771;-79
2022/01/25 00:54:27;;;;;;;;;;;;;;;2.74;76.94;101514.73;130501;1267;108603;-80
2022/01/25 00:57:31;;;;;;;;;;;;;;;2.74;77.07;101508.02;130541;1267;107240;-81
2022/01/25 01:00:36;;;;;;;34.80;19.90;;;;;;;2.73;77.34;101503.86;130481;1266;108778;-81
2022/01/25 01:03:42;;;;;;;39.30;20.40;;;;;;;2.69;77.28;101498.60;130544;1267;108738;-80
2022/01/25 01:06:48;;;;;;;36.80;18.90;;;;;;;2.68;77.28;101492.34;130567;1267;108696;-85
2022/01/25 01:09:54;;;;;;;37.90;20.10;;;;;;;2.68;77.19;101488.80;130541;1267;108550;-82
2022/01/25 01:13:38;;;;;;;35.20;18.80;;;;;;;2.73;77.32;101483.66;130458;1267;108444;-82
2022/01/25 01:16:59;;;;;;;33.60;19.10;;;;;;;2.80;77.42;101473.17;130522;1266;109134;-81
2022/01/25 01:30:32;;;;;;;39.40;20.40;;;;;;;2.89;77.56;101458.66;130441;1266;109081;-81
2022/01/25 01:41:03;;;;;;;42.00;20.60;;;;;;;2.78;77.64;101471.31;130321;1267;107875;-79
2022/01/25 01:44:11;;;;;;;38.30;18.50;;;;;;;2.81;77.64;101470.50;130454;1267;108620;-79
2022/01/25 01:47:23;;;;;;;36.80;19.50;;;;;;;2.83;77.78;101471.23;130660;1267;107605;-82
2022/01/25 01:50:32;;;;;;;35.90;18.60;;;;;;;2.88;77.92;101472.06;130547;1267;108621;-83
2022/01/25 01:53:38;;;;;;;37.70;20.10;;;;;;;2.89;77.92;101468.66;130511;1267;108866;-79
2022/01/25 01:56:44;;;;;;;37.40;19.70;;;;;;;2.90;77.73;101460.38;130515;1266;106627;-80
2022/01/25 01:59:50;;;;;;;44.50;21.80;;;;;;;2.92;77.77;101456.91;130413;1266;108687;-81
2022/01/25 02:02:55;;;;;;;41.60;20.40;;;;;;;2.91;77.71;101452.03;130547;1265;107624;-78
2022/01/25 02:06:01;;;;;;;41.30;20.40;;;;;;;2.89;77.85;101445.65;130517;1267;108823;-78
2022/01/25 02:09:09;;;;;;;40.60;20.20;;;;;;;2.88;78.04;101444.48;130531;1267;108831;-77
2022/01/25 02:12:15;;;;;;;34.00;16.80;;;;;;;2.87;78.04;101443.13;130644;1267;109001;-78
2022/01/25 02:15:22;;;;;;;35.20;17.60;;;;;;;2.88;78.23;101450.64;130373;1266;108785;-80
2022/01/25 02:25:15;;;;;;;35.10;17.60;;;;;;;2.91;78.28;101435.34;131016;1267;107683;-79
2022/01/25 02:28:22;;;;;;;33.80;17.30;;;;;;;2.92;78.18;101431.79;130406;1267;108741;-80
2022/01/25 02:31:27;;;;;;;38.10;18.80;;;;;;;2.92;78.28;101436.04;130465;1266;108892;-81
2022/01/25 02:34:33;;;;;;;34.30;18.30;;;;;;;2.90;78.28;101441.37;130475;1267;108798;-80
2022/01/25 02:37:39;;;;;;;31.90;16.10;;;;;;;2.90;78.27;101438.39;130484;1267;107640;-81
2022/01/25 02:40:44;;;;;;;36.30;18.20;;;;;;;2.89;78.47;101438.80;130476;1267;108941;-80
2022/01/25 02:43:51;;;;;;;35.30;18.10;;;;;;;2.94;78.53;101426.63;130460;1267;108658;-79
2022/01/25 02:50:22;;;;;;;35.40;17.30;;;;;;;3.00;78.31;101405.73;130531;1266;109137;-84
2022/01/25 02:53:27;;;;;;;34.20;18.30;;;;;;;2.99;78.52;101404.41;130642;1267;108855;-83
2022/01/25 02:56:34;;;;;;;36.50;18.00;;;;;;;2.93;78.53;101400.45;130617;1267;108870;-83
2022/01/25 02:59:40;;;;;;;36.70;19.00;;;;;;;2.92;78.59;101403.64;130606;1266;106894;-82
2022/01/25 03:02:45;;;;;;;35.30;16.80;;;;;;;2.92;78.57;101396.27;130648;1267;108735;-81
2022/01/25 03:05:50;;;;;;;36.20;17.20;;;;;;;2.95;78.62;101389.65;130592;1266;107996;-82
2022/01/25 03:08:56;;;;;;;34.20;17.40;;;;;;;2.96;78.62;101399.80;130616;1267;108810;-81
2022/01/25 03:12:05;;;;;;;35.40;17.30;;;;;;;2.95;78.66;101399.83;130656;1267;107703;-82
2022/01/25 03:18:45;;;;;;;34.30;17.70;;;;;;;2.94;78.58;101390.41;130590;1267;109037;-83
2022/01/25 03:21:51;;;;;;;32.80;17.50;;;;;;;2.92;78.60;101388.89;130567;1267;108562;-83
2022/01/25 03:24:56;;;;;;;36.30;17.90;;;;;;;2.89;78.64;101388.00;130598;1267;108688;-80
2022/01/25 03:28:02;;;;;;;35.00;16.90;;;;;;;2.88;78.72;101388.41;130487;1267;108707;-81
2022/01/25 03:31:07;;;;;;;31.30;14.60;;;;;;;2.90;78.84;101383.02;130520;1267;108998;-81
2022/01/25 03:34:13;;;;;;;33.60;16.90;;;;;;;2.92;78.95;101386.64;130564;1267;108734;-80
2022/01/25 03:37:18;;;;;;;33.50;17.10;;;;;;;2.96;78.78;101390.84;130568;1266;106727;-82
2022/01/25 03:40:23;;;;;;;29.10;15.70;;;;;;;2.98;78.73;101392.48;130583;1267;108801;-84
2022/01/25 03:43:29;;;;;;;31.90;16.90;;;;;;;3.00;78.66;101390.96;130515;1267;108930;-81
2022/01/25 03:46:40;;;;;;;30.90;16.20;;;;;;;2.99;78.76;101381.36;130620;1267;108858;-79
2022/01/25 03:49:50;;;;;;;32.10;16.60;;;;;;;2.95;78.89;101373.99;130494;1267;108740;-79
2022/01/25 03:52:55;;;;;;;34.80;16.50;;;;;;;2.91;78.94;101372.59;130532;1267;107592;-79
2022/01/25 03:56:01;;;;;;;34.30;17.20;;;;;;;2.89;79.06;101369.39;130488;1267;108459;-79
2022/01/25 03:59:08;;;;;;;32.30;15.30;;;;;;;2.89;79.02;101361.65;130483;1267;107300;-82
2022/01/25 04:02:14;;;;;;;31.80;16.30;;;;;;;2.92;78.98;101354.84;130473;1267;108823;-79
2022/01/25 04:05:24;;;;;;;32.20;16.60;;;;;;;2.93;79.11;101351.27;130414;1267;107892;-82
2022/01/25 04:08:29;;;;;;;32.20;16.30;;;;;;;2.89;79.00;101351.98;130519;1266;109753;-81
2022/01/25 04:11:35;;;;;;;30.80;17.00;;;;;;;2.84;78.79;101345.38;130688;1267;108645;-85
2022/01/25 04:14:41;;;;;;;34.60;17.60;;;;;;;2.76;78.90;101337.50;130496;1267;107261;-87
2022/01/25 04:17:51;;;;;;;32.10;16.60;;;;;;;2.70;78.76;101345.33;130503;1267;107732;-87
2022/01/25 04:21:04;;;;;;;36.00;17.20;;;;;;;2.62;79.12;101337.66;130741;1267;107498;-84
2022/01/25 04:27:35;;;;;;;26.50;13.30;;;;;;;2.54;79.12;101339.83;130581;1267;108714;-84
2022/01/25 04:30:40;;;;;;;28.70;14.60;;;;;;;2.49;79.16;101327.40;130837;1267;108613;-85
2022/01/25 04:34:06;;;;;;;29.70;14.30;;;;;;;2.51;79.31;101319.93;130580;1266;107805;-84
2022/01/25 04:51:03;;;;;;;24.70;12.40;;;;;;;2.43;79.82;101300.85;131078;1267;107915;-86
2022/01/25 04:54:16;;;;;;;28.10;14.70;;;;;;;2.43;79.83;101297.68;130498;1267;107537;-85
2022/01/25 04:57:35;;;;;;;28.40;14.20;;;;;;;2.45;79.91;101291.58;130437;1267;107686;-83
2022/01/25 05:00:40;;;;;;;27.10;14.30;;;;;;;2.52;79.86;101291.95;130599;1267;107412;-79
2022/01/25 05:03:59;;;;;;;28.70;14.20;;;;;;;2.53;79.80;101292.26;130468;1267;108791;-81
2022/01/25 05:07:15;;;;;;;26.20;14.10;;;;;;;2.52;79.83;101280.52;130554;1268;106939;-83
2022/01/25 05:10:21;;;;;;;28.70;14.10;;;;;;;2.47;79.87;101278.83;130438;1267;108807;-83
2022/01/25 05:13:40;;;;;;;28.70;13.70;;;;;;;2.40;79.97;101280.42;130787;1267;108932;-80
2022/01/25 05:16:52;;;;;;;24.90;12.20;;;;;;;2.36;80.19;101279.59;130630;1267;107233;-80
2022/01/25 05:23:16;;;;;;;38.80;20.70;;;;;;;2.34;80.26;101294.07;130361;1267;107422;-80
2022/01/25 05:26:23;;;;;;;36.40;19.70;;;;;;;2.33;80.40;101291.85;130333;1267;108867;-80
2022/01/25 05:29:28;;;;;;;37.10;18.70;;;;;;;2.37;80.45;101287.60;130652;1267;107615;-82
2022/01/25 05:32:34;;;;;;;48.60;25.90;;;;;;;2.39;80.35;101288.75;130521;1267;107419;-84
2022/01/25 05:35:39;;;;;;;174.20;59.60;;;;;;;2.35;80.54;101288.21;130424;1268;108583;-83
2022/01/25 05:38:46;;;;;;;123.30;40.20;;;;;;;2.39;80.63;101289.43;130457;1267;108768;-82
2022/01/25 05:41:57;;;;;;;210.50;66.90;;;;;;;2.43;80.66;101291.36;130461;1268;108726;-83
2022/01/25 05:45:18;;;;;;;189.30;64.30;;;;;;;2.45;80.68;101292.14;130449;1268;108879;-82
2022/01/25 05:48:23;;;;;;;187.40;65.30;;;;;;;2.51;80.54;101282.19;130479;1267;108830;-82
2022/01/25 05:51:28;;;;;;;134.30;47.90;;;;;;;2.55;80.64;101280.75;130481;1267;108857;-81
2022/01/25 05:54:34;;;;;;;473.70;223.40;;;;;;;2.53;80.60;101276.80;130476;1268;108732;-80
2022/01/25 05:57:39;;;;;;;96.30;46.00;;;;;;;2.50;80.56;101276.07;130448;1266;109010;-82
2022/01/25 06:00:45;;;;;;;38.30;20.30;;;;;;;2.46;80.90;101281.19;130439;1268;108815;-82
2022/01/25 06:03:50;;;;;;;30.90;17.00;;;;;;;2.44;81.03;101276.19;130471;1268;108593;-79
2022/01/25 06:06:56;;;;;;;33.10;17.70;;;;;;;2.48;81.05;101275.67;130341;1268;108979;-78
2022/01/25 06:10:02;;;;;;;30.60;16.50;;;;;;;2.53;80.94;101263.45;130386;1268;109123;-81
2022/01/25 06:13:08;;;;;;;31.20;18.10;;;;;;;2.53;80.90;101268.55;130419;1267;108614;-77
2022/01/25 06:16:13;;;;;;;39.30;22.80;;;;;;;2.46;81.03;101271.00;130330;1267;109050;-78
2022/01/25 06:19:19;;;;;;;33.40;17.80;;;;;;;2.37;81.27;101272.34;130300;1267;108692;-78
2022/01/25 06:22:24;;;;;;;35.90;21.00;;;;;;;2.23;81.56;101272.31;130317;1268;109020;-74
2022/01/25 06:25:30;;;;;;;34.00;19.20;;;;;;;2.14;81.98;101268.16;130350;1267;108685;-79
2022/01/25 06:28:35;;;;;;;31.20;17.70;;;;;;;2.10;82.11;101265.89;130437;1268;108847;-84
2022/01/25 06:31:40;;;;;;;26.60;15.20;;;;;;;2.08;81.94;101267.92;130442;1268;108766;-76
2022/01/25 06:34:46;;;;;;;22.70;13.40;;;;;;;2.07;82.18;101270.09;130320;1268;108960;-74
2022/01/25 06:37:51;;;;;;;29.20;15.90;;;;;;;1.96;82.44;101269.55;130324;1268;108778;-78
2022/01/25 06:40:57;;;;;;;26.40;14.70;;;;;;;1.89;82.47;101273.23;130328;1268;108710;-75
2022/01/25 06:44:02;;;;;;;94.10;36.00;;;;;;;1.86;83.01;101272.86;130298;1266;107711;-73
2022/01/25 06:47:09;;;;;;;31.70;20.00;;;;;;;1.90;82.91;101268.80;130358;1268;106944;-75
2022/01/25 06:50:16;;;;;;;21.40;13.50;;;;;;;1.91;83.03;101269.10;130357;1267;108882;-76
2022/01/25 06:53:22;;;;;;;21.70;13.40;;;;;;;1.95;83.14;101273.48;130331;1268;108762;-75
2022/01/25 06:56:28;;;;;;;19.10;11.30;;;;;;;1.95;82.80;101274.35;130358;1268;108495;-75
2022/01/25 06:59:33;;;;;;;20.60;12.50;;;;;;;1.91;82.80;101272.25;130211;1266;251901;-75
2022/01/25 07:02:39;;;;;;;26.30;16.00;;;;;;;1.86;83.10;101268.82;130388;1267;108896;-80
2022/01/25 07:05:44;;;;;;;24.60;14.60;;;;;;;1.91;82.78;101268.39;130492;1268;109054;-82
2022/01/25 07:08:50;;;;;;;32.70;18.80;;;;;;;2.00;82.71;101263.79;130547;1266;107779;-88
2022/01/25 07:11:55;;;;;;;22.50;12.80;;;;;;;2.06;83.01;101258.73;130488;1267;108874;-82
2022/01/25 07:15:00;;;;;;;31.50;19.60;;;;;;;2.04;83.06;101247.41;130837;1267;108733;-81
2022/01/25 07:18:06;;;;;;;23.40;14.20;;;;;;;2.12;83.01;101253.52;130831;1267;108619;-81
2022/01/25 07:21:11;;;;;;;28.10;16.60;;;;;;;2.17;83.11;101255.41;131858;1268;107580;-81
2022/01/25 07:24:17;;;;;;;24.90;15.60;;;;;;;2.12;83.40;101252.12;131705;1266;108777;-81
2022/01/25 07:27:22;;;;;;;28.50;17.60;;;;;;;2.06;83.37;101256.95;131090;1267;108746;-82
2022/01/25 07:30:28;;;;;;;22.80;13.80;;;;;;;1.98;84.08;101259.63;130707;1267;108796;-81
2022/01/25 07:33:34;;;;;;;26.00;16.80;;;;;;;2.03;83.61;101257.63;131545;1267;109201;-82
2022/01/25 07:36:42;;;;;;;26.10;15.50;;;;;;;2.16;83.54;101256.52;131429;1267;106877;-82
2022/01/25 07:39:48;;;;;;;25.10;14.00;;;;;;;2.19;83.46;101259.36;130638;1267;108926;-86
2022/01/25 07:42:53;;;;;;;25.30;14.40;;;;;;;2.18;83.47;101256.91;130626;1266;108478;-78
2022/01/25 07:46:04;;;;;;;26.10;15.20;;;;;;;2.25;83.21;101265.73;130498;1267;108930;-81
2022/01/25 07:49:09;;;;;;;22.10;13.60;;;;;;;2.27;83.35;101260.86;130361;1267;108611;-82
2022/01/25 07:52:14;;;;;;;23.20;14.50;;;;;;;2.31;83.48;101251.38;130420;1268;108840;-83
2022/01/25 07:55:20;;;;;;;24.30;14.20;;;;;;;2.39;83.50;101246.27;130352;1268;108800;-81
2022/01/25 07:58:25;;;;;;;23.50;14.00;;;;;;;2.41;83.40;101242.31;130341;1268;108702;-78
2022/01/25 08:01:31;;;;;;;21.80;13.30;;;;;;;2.39;83.39;101237.98;130324;1268;108843;-79
2022/01/25 08:04:36;;;;;;;20.60;12.50;;;;;;;2.38;83.55;101232.95;130310;1268;108880;-78
2022/01/25 08:07:42;;;;;;;20.40;12.60;;;;;;;2.34;83.65;101232.92;130418;1267;108705;-77
2022/01/25 08:10:47;;;;;;;22.10;13.00;;;;;;;2.35;83.70;101230.46;130340;1267;108819;-77
2022/01/25 08:14:00;;;;;;;21.90;12.60;;;;;;;2.35;84.03;101227.81;130295;1268;108623;-75
2022/01/25 08:17:04;;;;;;;;;;;;;;;2.30;84.04;101227.52;130345;1268;108508;-77
2022/01/25 08:20:10;;;;;;;29.50;15.80;;;;;;;2.26;84.13;101223.52;130287;1268;108945;-77
2022/01/25 08:23:16;;;;;;;44.80;20.80;;;;;;;2.23;84.00;101220.86;130270;1268;106691;-78
2022/01/25 08:26:21;;;;;;;40.80;19.10;;;;;;;2.27;84.16;101221.55;130357;1268;107636;-81
2022/01/25 08:29:26;;;;;;;35.80;18.20;;;;;;;2.30;84.25;101219.09;130723;1268;108568;-82
2022/01/25 08:32:32;;;;;;;60.60;22.00;;;;;;;2.39;84.23;101219.05;130552;1268;106191;-83
2022/01/25 08:35:37;;;;;;;23.20;13.30;;;;;;;2.39;84.29;101222.91;130726;1268;108797;-85
2022/01/25 08:38:43;;;;;;;28.80;13.70;;;;;;;2.39;84.11;101215.17;130463;1268;107651;-84
2022/01/25 08:41:48;;;;;;;19.90;12.10;;;;;;;2.42;84.22;101211.71;130334;1268;108912;-81
2022/01/25 08:44:54;;;;;;;61.70;22.90;;;;;;;2.37;84.31;101208.25;130441;1268;107665;-84
2022/01/25 08:47:59;;;;;;;29.60;13.80;;;;;;;2.40;84.28;101200.70;130394;1268;109171;-84
2022/01/25 08:51:05;;;;;;;36.40;17.20;;;;;;;2.50;84.20;101198.44;130428;1268;108839;-82
2022/01/25 08:54:11;;;;;;;27.20;14.80;;;;;;;2.57;84.11;101190.05;130432;1268;106846;-82
2022/01/25 08:57:16;;;;;;;27.80;14.30;;;;;;;2.60;84.09;101188.14;130404;1268;108913;-82
2022/01/25 09:00:22;;;;;;;25.80;14.40;;;;;;;2.62;83.88;101193.83;130410;1268;107782;-82
2022/01/25 09:03:27;;;;;;;61.30;24.00;;;;;;;2.66;83.94;101192.02;130384;1268;108779;-81
2022/01/25 09:06:33;;;;;;;26.10;14.40;;;;;;;2.70;83.96;101192.68;130456;1268;108790;-81
2022/01/25 09:09:41;;;;;;;46.40;20.80;;;;;;;2.73;83.68;101191.48;130460;1268;108601;-86
2022/01/25 09:12:47;;;;;;;20.90;13.00;;;;;;;2.83;83.78;101189.08;130432;1268;108848;-84
2022/01/25 09:15:53;;;;;;;21.70;13.30;;;;;;;2.84;83.61;101192.30;130443;1268;108683;-82
2022/01/25 09:18:59;;;;;;;22.50;12.90;;;;;;;2.82;83.55;101192.63;130425;1268;108839;-80
2022/01/25 09:22:04;;;;;;;26.60;14.50;;;;;;;2.74;83.64;101182.46;130421;1268;108880;-85
2022/01/25 09:25:12;;;;;;;22.80;12.70;;;;;;;2.78;83.99;101183.48;130503;1266;108981;-83
2022/01/25 09:28:18;;;;;;;21.40;13.00;;;;;;;2.85;83.91;101182.95;130493;1267;108595;-85
2022/01/25 09:31:25;;;;;;;23.00;12.90;;;;;;;2.93;83.99;101182.01;130696;1267;109205;-84
2022/01/25 09:34:30;;;;;;;22.80;13.70;;;;;;;3.00;83.89;101176.90;130672;1267;108879;-82
2022/01/25 09:37:36;;;;;;;20.80;12.60;;;;;;;3.00;83.67;101170.19;130527;1267;109973;-83
2022/01/25 09:40:41;;;;;;;22.70;13.40;;;;;;;3.04;83.74;101166.15;130524;1267;109096;-81
2022/01/25 09:43:47;;;;;;;21.70;13.10;;;;;;;2.97;83.70;101161.75;130515;1267;107458;-80
2022/01/25 09:46:56;;;;;;;18.40;11.50;;;;;;;2.96;83.68;101168.13;130552;1267;108537;-83
2022/01/25 09:50:01;;;;;;;21.30;12.00;;;;;;;3.01;83.67;101166.14;130673;1267;108600;-83
2022/01/25 09:53:08;;;;;;;19.70;12.80;;;;;;;3.05;83.69;101169.61;130651;1267;108550;-77
2022/01/25 09:56:13;;;;;;;21.20;12.90;;;;;;;3.06;83.70;101166.19;130427;1267;108789;-84
2022/01/25 09:59:19;;;;;;;23.70;14.00;;;;;;;3.12;83.71;101170.96;130356;1267;108837;-80
2022/01/25 10:02:48;;;;;;;21.60;12.60;;;;;;;3.17;83.61;101167.38;130506;1266;109187;-78
2022/01/25 10:05:58;;;;;;;23.60;12.50;;;;;;;3.24;83.69;101167.73;130418;1267;108978;-79
2022/01/25 10:09:03;;;;;;;22.50;13.80;;;;;;;3.24;83.59;101172.95;130363;1267;107736;-79
2022/01/25 10:12:24;;;;;;;25.10;14.70;;;;;;;3.15;83.52;101178.34;130484;1267;108853;-81
2022/01/25 10:15:29;;;;;;;24.70;14.50;;;;;;;3.19;83.65;101173.62;130467;1267;108856;-84
2022/01/25 10:18:48;;;;;;;21.20;12.70;;;;;;;3.20;83.62;101168.25;130432;1267;107679;-81
2022/01/25 10:21:54;;;;;;;40.90;20.20;;;;;;;3.19;83.76;101163.42;130523;1267;108869;-83
2022/01/25 10:24:59;;;;;;;20.90;12.00;;;;;;;3.19;83.78;101169.39;130494;1267;109757;-83
2022/01/25 10:28:11;;;;;;;20.50;12.00;;;;;;;3.13;83.97;101168.61;130482;1267;108912;-84
2022/01/25 10:31:16;;;;;;;19.80;11.60;;;;;;;3.06;83.98;101168.31;130630;1267;108650;-83
2022/01/25 10:34:27;;;;;;;27.20;13.40;;;;;;;3.02;84.43;101167.84;130568;1267;107869;-83
2022/01/25 10:37:41;;;;;;;19.70;11.90;;;;;;;2.98;84.47;101161.90;130831;1267;108635;-81
2022/01/25 10:40:55;;;;;;;20.60;12.70;;;;;;;3.03;84.58;101165.33;132303;1266;107778;-78
2022/01/25 10:44:01;;;;;;;22.50;12.60;;;;;;;3.02;84.49;101173.61;130333;1267;107243;-80
2022/01/25 10:47:06;;;;;;;22.40;12.30;;;;;;;3.00;84.49;101170.23;130407;1267;108826;-79
2022/01/25 10:50:18;;;;;;;20.70;11.00;;;;;;;3.03;84.76;101170.38;130448;1267;109007;-79
2022/01/25 10:53:24;;;;;;;22.70;11.80;;;;;;;3.08;84.70;101162.40;130363;1267;108951;-81
2022/01/25 10:56:36;;;;;;;21.50;11.80;;;;;;;3.16;84.83;101163.55;130465;1267;108932;-82
2022/01/25 10:59:41;;;;;;;23.20;12.30;;;;;;;3.25;84.89;101166.80;130414;1267;109061;-82
2022/01/25 11:02:52;;;;;;;23.00;12.90;;;;;;;3.19;84.95;101162.49;130632;1267;109660;-81
2022/01/25 11:06:08;;;;;;;18.10;11.00;;;;;;;3.15;84.79;101158.14;130427;1267;107856;-82
2022/01/25 11:09:16;;;;;;;18.70;10.40;;;;;;;3.12;84.83;101148.64;130519;1267;108773;-82
2022/01/25 11:12:23;;;;;;;18.60;10.40;;;;;;;3.10;85.23;101143.83;130501;1267;108768;-81
2022/01/25 11:15:29;;;;;;;16.70;11.10;;;;;;;3.13;85.41;101140.86;130447;1267;108608;-78
2022/01/25 11:18:35;;;;;;;19.50;11.30;;;;;;;3.18;85.50;101138.84;130515;1267;108819;-77
2022/01/25 11:21:43;;;;;;;29.30;14.10;;;;;;;3.15;85.12;101141.10;130343;1267;108944;-80
2022/01/25 11:24:52;;;;;;;24.00;12.70;;;;;;;3.13;85.50;101139.63;130344;1267;108751;-76
2022/01/25 11:27:59;;;;;;;19.20;10.60;;;;;;;3.06;86.18;101138.58;130343;1267;109124;-77
2022/01/25 11:31:07;;;;;;;19.60;12.50;;;;;;;2.98;86.13;101136.39;130338;1267;108822;-79
2022/01/25 11:34:15;;;;;;;22.00;12.00;;;;;;;3.00;86.51;101135.58;130317;1267;108866;-74
2022/01/25 11:37:33;;;;;;;23.00;14.10;;;;;;;3.00;86.31;101141.01;130399;1267;108777;-75
2022/01/25 11:40:41;;;;;;;21.80;13.20;;;;;;;3.03;86.35;101140.88;130292;1267;108733;-77
2022/01/25 11:44:05;;;;;;;21.10;12.10;;;;;;;3.02;86.45;101141.63;130324;1267;108767;-78
2022/01/25 11:47:13;;;;;;;21.50;13.00;;;;;;;2.94;86.69;101146.09;130352;1267;108857;-78
2022/01/25 11:50:20;;;;;;;20.90;13.30;;;;;;;2.94;86.74;101145.03;130409;1266;108763;-79
2022/01/25 11:53:29;;;;;;;21.70;13.20;;;;;;;3.00;86.60;101138.92;130418;1267;108788;-78
2022/01/25 11:56:36;;;;;;;20.60;12.80;;;;;;;3.10;86.12;101130.13;130310;1268;108892;-78
2022/01/25 11:59:42;;;;;;;20.80;12.40;;;;;;;3.22;86.08;101132.48;130332;1268;108861;-78
2022/01/25 12:02:50;;;;;;;22.90;12.90;;;;;;;3.20;86.26;101127.13;130297;1268;108729;-76
2022/01/25 12:06:01;;;;;;;23.10;13.60;;;;;;;3.25;86.34;101128.25;130330;1268;108830;-79
2022/01/25 12:09:14;;;;;;;21.80;12.80;;;;;;;3.28;86.26;101123.83;130330;1268;107749;-77
2022/01/25 12:12:22;;;;;;;21.40;14.00;;;;;;;3.29;86.25;101120.82;130261;1268;107733;-78
2022/01/25 12:15:27;;;;;;;22.90;14.10;;;;;;;3.31;86.09;101114.73;130252;1268;108904;-81
2022/01/25 12:18:57;;;;;;;24.30;16.30;;;;;;;3.33;86.22;101115.66;130251;1267;108965;-78
2022/01/25 12:22:29;;;;;;;24.80;16.00;;;;;;;3.38;86.21;101117.51;130251;1268;107767;-78
2022/01/25 12:25:49;;;;;;;29.30;17.30;;;;;;;3.37;86.04;101111.95;130311;1268;108808;-79
2022/01/25 12:29:31;;;;;;;35.80;19.10;;;;;;;3.38;86.05;101108.03;130430;1267;107310;-80
2022/01/25 12:32:38;;;;;;;22.90;13.80;;;;;;;3.39;86.12;101105.86;130536;1266;108887;-82
2022/01/25 12:35:47;;;;;;;24.20;14.30;;;;;;;3.36;86.17;101107.96;130557;1266;108687;-80
2022/01/25 12:38:54;;;;;;;21.40;11.80;;;;;;;3.37;86.22;101110.73;130483;1267;108943;-79
2022/01/25 12:42:02;;;;;;;25.20;14.60;;;;;;;3.43;86.07;101106.15;130555;1267;108621;-80
2022/01/25 12:45:08;;;;;;;26.30;16.50;;;;;;;3.46;86.30;101101.39;130494;1267;108736;-81
2022/01/25 12:48:15;;;;;;;23.60;13.90;;;;;;;3.34;86.46;101100.50;130357;1266;108849;-77
2022/01/25 12:51:24;;;;;;;19.70;12.50;;;;;;;3.26;86.63;101101.63;130463;1266;107652;-78
2022/01/25 12:54:29;;;;;;;31.90;17.50;;;;;;;3.26;86.79;101099.86;130451;1267;108813;-80
2022/01/25 12:57:35;;;;;;;25.20;15.30;;;;;;;3.29;86.77;101098.09;130634;1267;108936;-80
2022/01/25 13:00:43;;;;;;;22.50;13.40;;;;;;;3.31;86.62;101096.29;130728;1267;108808;-82
2022/01/25 13:03:52;;;;;;;21.00;13.10;;;;;;;3.38;86.57;101088.48;130438;1267;109360;-76
2022/01/25 13:06:58;;;;;;;18.50;11.70;;;;;;;3.49;86.31;101083.45;130701;1267;108788;-84
2022/01/25 13:10:06;;;;;;;26.80;16.50;;;;;;;3.52;86.13;101078.91;130562;1266;109106;-87
2022/01/25 13:13:24;;;;;;;23.40;15.00;;;;;;;3.51;86.11;101078.23;130506;1267;107660;-85
2022/01/25 13:16:43;;;;;;;21.90;14.10;;;;;;;3.54;86.25;101080.55;130350;1268;108704;-85
2022/01/25 13:19:54;;;;;;;20.70;12.80;;;;;;;3.53;86.13;101073.73;130596;1267;108712;-82
2022/01/25 13:23:00;;;;;;;26.10;16.40;;;;;;;3.52;86.31;101077.30;130555;1267;108813;-77
2022/01/25 13:26:12;;;;;;;29.30;18.10;;;;;;;3.50;86.21;101073.71;130375;1267;108748;-79
2022/01/25 13:32:39;;;;;;;26.90;15.70;;;;;;;3.36;86.80;101071.02;130288;1267;108874;-80
2022/01/25 13:35:50;;;;;;;25.90;16.90;;;;;;;3.35;86.52;101073.17;130435;1267;108917;-81
2022/01/25 13:38:55;;;;;;;22.70;13.40;;;;;;;3.35;86.56;101074.38;130475;1267;108713;-79
2022/01/25 13:42:08;;;;;;;28.10;17.10;;;;;;;3.43;86.61;101071.88;130353;1267;107711;-82
2022/01/25 13:48:41;;;;;;;27.90;16.30;;;;;;;3.30;86.97;101071.17;130438;1266;108740;-83
2022/01/25 13:51:51;;;;;;;22.80;15.40;;;;;;;3.28;86.78;101073.91;130486;1267;108886;-82
2022/01/25 13:55:10;;;;;;;23.30;14.80;;;;;;;3.27;87.28;101071.13;130459;1267;107705;-78
2022/01/25 13:58:25;;;;;;;23.50;15.80;;;;;;;3.20;87.29;101066.63;130415;1267;108735;-76
2022/01/25 14:01:32;;;;;;;23.20;14.50;;;;;;;3.20;87.10;101066.66;130492;1266;106670;-78
2022/01/25 14:04:39;;;;;;;26.90;15.50;;;;;;;3.23;87.14;101067.38;130468;1266;108664;-79
2022/01/25 14:07:47;;;;;;;25.00;15.20;;;;;;;3.15;87.66;101072.86;130364;1267;108783;-78
2022/01/25 14:10:55;;;;;;;25.80;14.80;;;;;;;3.03;88.00;101080.02;130361;1267;108633;-77
2022/01/25 14:24:13;;;;;;;22.40;14.20;;;;;;;3.06;88.28;101076.56;130488;1267;108792;-80
2022/01/25 14:27:26;;;;;;;28.00;17.90;;;;;;;3.04;88.29;101075.77;130510;1267;107397;-81
2022/01/25 14:30:35;;;;;;;23.80;14.50;;;;;;;3.07;87.93;101074.71;130515;1267;109636;-80
2022/01/25 14:33:48;;;;;;;28.80;19.30;;;;;;;3.09;88.20;101073.55;130648;1267;108850;-82
2022/01/25 14:36:54;;;;;;;26.30;15.10;;;;;;;3.10;87.86;101067.19;130491;1266;108668;-82
2022/01/25 14:40:09;;;;;;;24.70;14.80;;;;;;;3.14;87.96;101060.81;130843;1266;109171;-80
2022/01/25 14:43:14;;;;;;;26.20;16.30;;;;;;;3.03;88.33;101071.41;130382;1266;108823;-81
2022/01/25 14:46:25;;;;;;;105.00;54.40;;;;;;;2.95;88.58;101074.67;130375;1267;108945;-81
2022/01/25 14:49:32;;;;;;;102.80;51.70;;;;;;;2.96;88.49;101076.05;130456;1267;108519;-81
2022/01/25 14:52:37;;;;;;;57.00;32.70;;;;;;;2.97;88.35;101077.06;130487;1267;108817;-81
2022/01/25 14:55:44;;;;;;;35.60;20.10;;;;;;;2.97;88.54;101077.02;130512;1266;108767;-81
2022/01/25 15:02:15;;;;;;;28.40;17.90;;;;;;;2.91;88.52;101082.81;130635;1266;109106;-80
2022/01/25 15:05:21;;;;;;;34.40;20.00;;;;;;;2.92;88.87;101085.72;130401;1267;108763;-78
2022/01/25 15:08:30;;;;;;;42.70;25.50;;;;;;;2.96;88.42;101082.17;130403;1267;108682;-79
2022/01/25 15:11:35;;;;;;;31.10;17.30;;;;;;;2.99;88.79;101089.08;130498;1267;108937;-78
2022/01/25 15:14:51;;;;;;;38.90;20.50;;;;;;;2.93;88.66;101088.86;130472;1267;108645;-81
2022/01/25 15:17:57;;;;;;;58.70;30.50;;;;;;;2.93;88.66;101088.16;130419;1267;107720;-82
2022/01/25 15:21:05;;;;;;;21.40;13.90;;;;;;;2.95;88.70;101095.78;130530;1266;108823;-80
2022/01/25 15:24:10;;;;;;;24.00;14.60;;;;;;;3.01;88.49;101095.45;130513;1267;108700;-79
2022/01/25 15:27:16;;;;;;;47.00;27.50;;;;;;;3.05;88.44;101098.59;130434;1267;109757;-81
2022/01/25 15:30:22;;;;;;;24.00;14.90;;;;;;;3.07;88.49;101096.38;130581;1267;109798;-75
2022/01/25 15:33:27;;;;;;;25.30;14.00;;;;;;;3.03;88.47;101100.27;130385;1266;108713;-78
2022/01/25 15:36:33;;;;;;;50.50;27.60;;;;;;;2.93;89.13;101099.20;130407;1267;108854;-78
2022/01/25 15:39:38;;;;;;;29.30;17.00;;;;;;;2.88;89.46;101101.42;130462;1267;108939;-80